sensor_id;sensor_type;location;lat;lon;timestamp;P1;durP1;ratioP1;P2;durP2;ratioP2
21448;SDS011;10885;52.830;13.788;2024-03-06T05:12:59;5.70;;;3.28;;
21448;SDS011;10885;52.830;13.788;2024-03-06T05:18:19;6.83;;;5.03;;
21448;SDS011;10885;52.830;13.788;2024-03-06T05:23:40;8.80;;;3.85;;
21448;SDS011;10885;52.830;13.788;2024-03-06T05:29:00;5.97;;;3.40;;
21448;SDS011;10885;52.830;13.788;2024-03-06T05:34:19;7.28;;;4.15;;
21448;SDS011;10885;52.830;13.788;2024-03-06T05:39:39;5.35;;;3.38;;
21448;SDS011;10885;52.830;13.788;2024-03-06T05:45:01;5.63;;;3.33;;
21448;SDS011;10885;52.830;13.788;2024-03-06T05:50:24;5.85;;;2.72;;
21448;SDS011;10885;52.830;13.788;2024-03-06T05:55:45;5.45;;;2.60;;
21448;SDS011;10885;52.830;13.788;2024-03-06T06:01:05;5.67;;;3.60;;
21448;SDS011;10885;52.830;13.788;2024-03-06T06:06:08;6.72;;;3.13;;
21448;SDS011;10885;52.830;13.788;2024-03-06T06:11:11;8.70;;;3.00;;
21448;SDS011;10885;52.830;13.788;2024-03-06T06:16:14;5.75;;;3.10;;
21448;SDS011;10885;52.830;13.788;2024-03-06T06:21:16;5.30;;;3.60;;
21448;SDS011;10885;52.830;13.788;2024-03-06T06:26:20;4.82;;;3.42;;
21448;SDS011;10885;52.830;13.788;2024-03-06T06:31:23;8.27;;;3.60;;
21448;SDS011;10885;52.830;13.788;2024-03-06T06:36:27;9.27;;;3.53;;
21448;SDS011;10885;52.830;13.788;2024-03-06T06:41:30;5.13;;;3.63;;
21448;SDS011;10885;52.830;13.788;2024-03-06T06:46:32;6.88;;;3.30;;
21448;SDS011;10885;52.830;13.788;2024-03-06T06:51:35;8.45;;;2.75;;
21448;SDS011;10885;52.830;13.788;2024-03-06T06:56:37;6.93;;;2.92;;
21448;SDS011;10885;52.830;13.788;2024-03-06T07:01:41;6.47;;;3.15;;
21448;SDS011;10885;52.830;13.788;2024-03-06T07:06:43;4.78;;;3.17;;
21448;SDS011;10885;52.830;13.788;2024-03-06T07:11:46;7.90;;;4.00;;
21448;SDS011;10885;52.830;13.788;2024-03-06T07:16:49;10.65;;;4.15;;
21448;SDS011;10885;52.830;13.788;2024-03-06T07:21:51;5.40;;;3.67;;
21448;SDS011;10885;52.830;13.788;2024-03-06T07:26:55;5.20;;;3.83;;
21448;SDS011;10885;52.830;13.788;2024-03-06T07:31:58;5.95;;;3.65;;
21448;SDS011;10885;52.830;13.788;2024-03-06T07:37:00;6.78;;;4.40;;
21448;SDS011;10885;52.830;13.788;2024-03-06T07:42:07;6.20;;;4.40;;
21448;SDS011;10885;52.830;13.788;2024-03-06T07:47:09;7.00;;;4.63;;
21448;SDS011;10885;52.830;13.788;2024-03-06T07:52:12;6.63;;;4.60;;
21448;SDS011;10885;52.830;13.788;2024-03-06T07:57:15;8.07;;;4.95;;
21448;SDS011;10885;52.830;13.788;2024-03-06T08:02:17;6.80;;;4.25;;
21448;SDS011;10885;52.830;13.788;2024-03-06T08:07:20;8.25;;;5.07;;
21448;SDS011;10885;52.830;13.788;2024-03-06T08:12:23;8.93;;;4.97;;
21448;SDS011;10885;52.830;13.788;2024-03-06T08:17:26;6.68;;;4.53;;
21448;SDS011;10885;52.830;13.788;2024-03-06T08:22:29;8.20;;;5.28;;
21448;SDS011;10885;52.830;13.788;2024-03-06T08:27:31;8.48;;;5.70;;
21448;SDS011;10885;52.830;13.788;2024-03-06T08:32:35;7.22;;;5.68;;
21448;SDS011;10885;52.830;13.788;2024-03-06T08:37:40;11.75;;;5.53;;
21448;SDS011;10885;52.830;13.788;2024-03-06T08:42:46;8.55;;;5.47;;
21448;SDS011;10885;52.830;13.788;2024-03-06T08:47:49;9.70;;;5.90;;
21448;SDS011;10885;52.830;13.788;2024-03-06T08:52:52;13.55;;;7.10;;
21448;SDS011;10885;52.830;13.788;2024-03-06T08:57:55;12.80;;;6.72;;
21448;SDS011;10885;52.830;13.788;2024-03-06T09:02:58;10.38;;;6.80;;
21448;SDS011;10885;52.830;13.788;2024-03-06T09:08:01;12.18;;;7.97;;
21448;SDS011;10885;52.830;13.788;2024-03-06T09:13:07;9.63;;;7.32;;
21448;SDS011;10885;52.830;13.788;2024-03-06T09:18:10;12.95;;;7.50;;
21448;SDS011;10885;52.830;13.788;2024-03-06T09:23:12;11.55;;;7.95;;
21448;SDS011;10885;52.830;13.788;2024-03-06T09:28:16;11.70;;;6.63;;
21448;SDS011;10885;52.830;13.788;2024-03-06T09:33:18;9.75;;;6.63;;
21448;SDS011;10885;52.830;13.788;2024-03-06T09:38:21;11.15;;;6.57;;
21448;SDS011;10885;52.830;13.788;2024-03-06T09:43:23;22.95;;;8.55;;
21448;SDS011;10885;52.830;13.788;2024-03-06T09:48:29;10.55;;;7.30;;
21448;SDS011;10885;52.830;13.788;2024-03-06T09:53:31;10.90;;;7.95;;
21448;SDS011;10885;52.830;13.788;2024-03-06T09:58:37;10.85;;;7.55;;
21448;SDS011;10885;52.830;13.788;2024-03-06T10:03:40;12.52;;;7.72;;
21448;SDS011;10885;52.830;13.788;2024-03-06T10:08:43;13.18;;;9.82;;
21448;SDS011;10885;52.830;13.788;2024-03-06T10:13:48;12.38;;;8.02;;
21448;SDS011;10885;52.830;13.788;2024-03-06T10:18:55;18.88;;;10.00;;
21448;SDS011;10885;52.830;13.788;2024-03-06T10:23:57;29.17;;;14.00;;
21448;SDS011;10885;52.830;13.788;2024-03-06T10:29:00;26.60;;;16.38;;
21448;SDS011;10885;52.830;13.788;2024-03-06T10:34:03;30.95;;;18.00;;
21448;SDS011;10885;52.830;13.788;2024-03-06T10:39:06;27.75;;;16.00;;
21448;SDS011;10885;52.830;13.788;2024-03-06T10:44:13;32.95;;;16.80;;
21448;SDS011;10885;52.830;13.788;2024-03-06T10:49:16;42.95;;;21.05;;
21448;SDS011;10885;52.830;13.788;2024-03-06T10:54:21;35.53;;;17.95;;
21448;SDS011;10885;52.830;13.788;2024-03-06T10:59:25;44.13;;;20.60;;
21448;SDS011;10885;52.830;13.788;2024-03-06T11:04:32;52.38;;;24.83;;
21448;SDS011;10885;52.830;13.788;2024-03-06T11:09:37;52.22;;;24.02;;
21448;SDS011;10885;52.830;13.788;2024-03-06T11:14:43;39.45;;;20.73;;
21448;SDS011;10885;52.830;13.788;2024-03-06T11:25:08;37.75;;;20.23;;
21448;SDS011;10885;52.830;13.788;2024-03-06T11:30:56;60.40;;;29.00;;
21448;SDS011;10885;52.830;13.788;2024-03-06T11:41:31;45.58;;;21.45;;
21448;SDS011;10885;52.830;13.788;2024-03-06T11:51:48;63.78;;;32.50;;
21448;SDS011;10885;52.830;13.788;2024-03-06T11:56:52;60.97;;;32.47;;
21448;SDS011;10885;52.830;13.788;2024-03-06T12:01:58;72.80;;;37.08;;
21448;SDS011;10885;52.830;13.788;2024-03-06T12:07:05;56.13;;;29.55;;
21448;SDS011;10885;52.830;13.788;2024-03-06T12:12:08;44.60;;;26.48;;
21448;SDS011;10885;52.830;13.788;2024-03-06T12:17:13;48.85;;;27.60;;
21448;SDS011;10885;52.830;13.788;2024-03-06T12:22:19;40.83;;;22.52;;
21448;SDS011;10885;52.830;13.788;2024-03-06T12:27:27;37.50;;;20.02;;
21448;SDS011;10885;52.830;13.788;2024-03-06T12:32:30;29.58;;;16.85;;
21448;SDS011;10885;52.830;13.788;2024-03-06T12:37:33;23.25;;;13.60;;
21448;SDS011;10885;52.830;13.788;2024-03-06T12:42:37;23.45;;;13.43;;
21448;SDS011;10885;52.830;13.788;2024-03-06T12:47:42;37.55;;;18.38;;
21448;SDS011;10885;52.830;13.788;2024-03-06T12:52:47;24.80;;;14.65;;
21448;SDS011;10885;52.830;13.788;2024-03-06T12:57:50;37.15;;;20.85;;
21448;SDS011;10885;52.830;13.788;2024-03-06T13:02:54;34.17;;;20.00;;
21448;SDS011;10885;52.830;13.788;2024-03-06T13:07:57;28.63;;;15.80;;
21448;SDS011;10885;52.830;13.788;2024-03-06T13:13:02;30.67;;;16.60;;
21448;SDS011;10885;52.830;13.788;2024-03-06T13:18:05;22.73;;;14.18;;
21448;SDS011;10885;52.830;13.788;2024-03-06T13:23:08;17.10;;;11.18;;
21448;SDS011;10885;52.830;13.788;2024-03-06T13:28:11;13.48;;;8.70;;
21448;SDS011;10885;52.830;13.788;2024-03-06T13:33:14;11.50;;;7.45;;
21448;SDS011;10885;52.830;13.788;2024-03-06T13:38:17;8.02;;;6.07;;
21448;SDS011;10885;52.830;13.788;2024-03-06T13:43:20;8.50;;;5.90;;
21448;SDS011;10885;52.830;13.788;2024-03-06T13:48:25;6.60;;;5.13;;
21448;SDS011;10885;52.830;13.788;2024-03-06T13:53:28;9.50;;;7.40;;
21448;SDS011;10885;52.830;13.788;2024-03-06T13:58:31;9.75;;;6.45;;
21448;SDS011;10885;52.830;13.788;2024-03-06T14:03:33;9.90;;;6.13;;
21448;SDS011;10885;52.830;13.788;2024-03-06T14:08:36;9.13;;;6.13;;
21448;SDS011;10885;52.830;13.788;2024-03-06T14:13:42;6.78;;;4.85;;
21448;SDS011;10885;52.830;13.788;2024-03-06T14:18:44;9.23;;;6.25;;
21448;SDS011;10885;52.830;13.788;2024-03-06T14:23:47;8.27;;;6.10;;
21448;SDS011;10885;52.830;13.788;2024-03-06T14:28:50;8.82;;;6.53;;
21448;SDS011;10885;52.830;13.788;2024-03-06T14:33:53;8.65;;;6.25;;
21448;SDS011;10885;52.830;13.788;2024-03-06T14:38:55;7.68;;;5.60;;
21448;SDS011;10885;52.830;13.788;2024-03-06T14:43:58;10.05;;;7.55;;
21448;SDS011;10885;52.830;13.788;2024-03-06T14:49:01;12.15;;;8.63;;
21448;SDS011;10885;52.830;13.788;2024-03-06T14:54:05;12.00;;;8.65;;
21448;SDS011;10885;52.830;13.788;2024-03-06T14:59:07;10.13;;;7.50;;
21448;SDS011;10885;52.830;13.788;2024-03-06T15:04:10;11.90;;;8.20;;
21448;SDS011;10885;52.830;13.788;2024-03-06T15:09:16;10.50;;;7.78;;
21448;SDS011;10885;52.830;13.788;2024-03-06T15:14:24;12.63;;;7.72;;
21448;SDS011;10885;52.830;13.788;2024-03-06T15:19:27;12.95;;;8.35;;
21448;SDS011;10885;52.830;13.788;2024-03-06T15:24:30;7.63;;;6.15;;
21448;SDS011;10885;52.830;13.788;2024-03-06T15:29:32;10.98;;;5.70;;
21448;SDS011;10885;52.830;13.788;2024-03-06T15:34:35;9.82;;;6.35;;
21448;SDS011;10885;52.830;13.788;2024-03-06T15:39:39;10.35;;;6.20;;
21448;SDS011;10885;52.830;13.788;2024-03-06T15:44:41;8.77;;;5.60;;
21448;SDS011;10885;52.830;13.788;2024-03-06T15:49:44;8.05;;;5.97;;
21448;SDS011;10885;52.830;13.788;2024-03-06T15:54:47;8.15;;;5.88;;
21448;SDS011;10885;52.830;13.788;2024-03-06T15:59:50;6.07;;;4.75;;
21448;SDS011;10885;52.830;13.788;2024-03-06T16:04:53;9.25;;;5.18;;
21448;SDS011;10885;52.830;13.788;2024-03-06T16:09:55;6.82;;;4.85;;
21448;SDS011;10885;52.830;13.788;2024-03-06T16:14:58;8.10;;;5.35;;
21448;SDS011;10885;52.830;13.788;2024-03-06T16:20:01;6.78;;;5.50;;
21448;SDS011;10885;52.830;13.788;2024-03-06T16:25:07;9.75;;;6.43;;
21448;SDS011;10885;52.830;13.788;2024-03-06T16:30:10;9.68;;;6.18;;
21448;SDS011;10885;52.830;13.788;2024-03-06T16:35:13;8.63;;;5.72;;
21448;SDS011;10885;52.830;13.788;2024-03-06T16:40:16;11.18;;;7.32;;
21448;SDS011;10885;52.830;13.788;2024-03-06T16:45:18;7.40;;;5.75;;
21448;SDS011;10885;52.830;13.788;2024-03-06T16:50:21;7.57;;;5.95;;
21448;SDS011;10885;52.830;13.788;2024-03-06T16:55:24;10.68;;;6.20;;
21448;SDS011;10885;52.830;13.788;2024-03-06T17:00:27;8.25;;;4.93;;
21448;SDS011;10885;52.830;13.788;2024-03-06T17:05:29;7.60;;;5.00;;
21448;SDS011;10885;52.830;13.788;2024-03-06T17:10:32;8.38;;;6.05;;
21448;SDS011;10885;52.830;13.788;2024-03-06T17:15:35;8.05;;;5.72;;
21448;SDS011;10885;52.830;13.788;2024-03-06T17:20:38;7.10;;;4.90;;
21448;SDS011;10885;52.830;13.788;2024-03-06T17:25:40;6.85;;;5.60;;
21448;SDS011;10885;52.830;13.788;2024-03-06T17:30:43;7.57;;;5.43;;
21448;SDS011;10885;52.830;13.788;2024-03-06T17:35:46;6.28;;;5.15;;
21448;SDS011;10885;52.830;13.788;2024-03-06T17:40:50;7.15;;;5.10;;
21448;SDS011;10885;52.830;13.788;2024-03-06T17:45:53;8.90;;;5.55;;
21448;SDS011;10885;52.830;13.788;2024-03-06T17:50:55;7.03;;;5.00;;
21448;SDS011;10885;52.830;13.788;2024-03-06T17:55:58;9.52;;;6.45;;
21448;SDS011;10885;52.830;13.788;2024-03-06T18:01:01;11.65;;;7.38;;
21448;SDS011;10885;52.830;13.788;2024-03-06T18:06:05;18.00;;;10.50;;
21448;SDS011;10885;52.830;13.788;2024-03-06T18:11:08;14.00;;;9.20;;
21448;SDS011;10885;52.830;13.788;2024-03-06T18:16:11;12.55;;;8.30;;
21448;SDS011;10885;52.830;13.788;2024-03-06T18:21:14;15.60;;;9.38;;
21448;SDS011;10885;52.830;13.788;2024-03-06T18:26:19;19.15;;;11.45;;
21448;SDS011;10885;52.830;13.788;2024-03-06T18:31:22;17.73;;;10.18;;
21448;SDS011;10885;52.830;13.788;2024-03-06T18:36:24;21.20;;;11.07;;
21448;SDS011;10885;52.830;13.788;2024-03-06T18:41:27;15.95;;;10.43;;
21448;SDS011;10885;52.830;13.788;2024-03-06T18:46:30;18.50;;;10.27;;
21448;SDS011;10885;52.830;13.788;2024-03-06T18:51:35;18.50;;;10.90;;
21448;SDS011;10885;52.830;13.788;2024-03-06T18:56:37;22.63;;;12.63;;
21448;SDS011;10885;52.830;13.788;2024-03-06T19:01:40;17.70;;;10.23;;
21448;SDS011;10885;52.830;13.788;2024-03-06T19:06:46;20.90;;;11.13;;
21448;SDS011;10885;52.830;13.788;2024-03-06T19:11:49;20.15;;;10.80;;
21448;SDS011;10885;52.830;13.788;2024-03-06T19:16:54;19.60;;;9.60;;
21448;SDS011;10885;52.830;13.788;2024-03-06T19:21:56;19.67;;;10.65;;
21448;SDS011;10885;52.830;13.788;2024-03-06T19:26:59;26.30;;;12.30;;
21448;SDS011;10885;52.830;13.788;2024-03-06T19:32:01;19.83;;;10.80;;
21448;SDS011;10885;52.830;13.788;2024-03-06T19:37:06;19.45;;;11.40;;
21448;SDS011;10885;52.830;13.788;2024-03-06T19:42:09;26.80;;;13.80;;
21448;SDS011;10885;52.830;13.788;2024-03-06T19:47:11;24.17;;;13.07;;
21448;SDS011;10885;52.830;13.788;2024-03-06T19:52:14;31.95;;;14.60;;
21448;SDS011;10885;52.830;13.788;2024-03-06T19:57:17;31.70;;;15.93;;
21448;SDS011;10885;52.830;13.788;2024-03-06T20:02:20;36.55;;;16.73;;
21448;SDS011;10885;52.830;13.788;2024-03-06T20:07:23;30.92;;;14.52;;
21448;SDS011;10885;52.830;13.788;2024-03-06T20:12:25;31.42;;;14.73;;
21448;SDS011;10885;52.830;13.788;2024-03-06T20:17:28;38.78;;;17.17;;
21448;SDS011;10885;52.830;13.788;2024-03-06T20:22:31;32.00;;;14.68;;
21448;SDS011;10885;52.830;13.788;2024-03-06T20:27:33;29.45;;;13.80;;
21448;SDS011;10885;52.830;13.788;2024-03-06T20:32:36;29.83;;;13.88;;
21448;SDS011;10885;52.830;13.788;2024-03-06T20:37:39;27.85;;;13.75;;
21448;SDS011;10885;52.830;13.788;2024-03-06T20:42:42;26.08;;;13.85;;
21448;SDS011;10885;52.830;13.788;2024-03-06T20:47:45;36.20;;;17.27;;
21448;SDS011;10885;52.830;13.788;2024-03-06T20:52:47;32.20;;;15.90;;
21448;SDS011;10885;52.830;13.788;2024-03-06T20:57:50;34.55;;;16.50;;
21448;SDS011;10885;52.830;13.788;2024-03-06T21:02:52;35.45;;;15.70;;
21448;SDS011;10885;52.830;13.788;2024-03-06T21:07:55;34.70;;;15.75;;
21448;SDS011;10885;52.830;13.788;2024-03-06T21:12:58;34.38;;;16.20;;
21448;SDS011;10885;52.830;13.788;2024-03-06T21:18:00;35.65;;;14.32;;
21448;SDS011;10885;52.830;13.788;2024-03-06T21:23:03;30.98;;;14.23;;
21448;SDS011;10885;52.830;13.788;2024-03-06T21:28:06;40.65;;;16.17;;
21448;SDS011;10885;52.830;13.788;2024-03-06T21:33:10;36.15;;;16.25;;
21448;SDS011;10885;52.830;13.788;2024-03-06T21:38:14;34.85;;;13.93;;
21448;SDS011;10885;52.830;13.788;2024-03-06T21:43:17;31.52;;;13.25;;
21448;SDS011;10885;52.830;13.788;2024-03-06T21:48:19;24.73;;;11.75;;
21448;SDS011;10885;52.830;13.788;2024-03-06T21:53:22;28.10;;;12.15;;
21448;SDS011;10885;52.830;13.788;2024-03-06T21:58:25;32.42;;;13.20;;
21448;SDS011;10885;52.830;13.788;2024-03-06T22:03:29;40.90;;;14.63;;
21448;SDS011;10885;52.830;13.788;2024-03-06T22:08:32;34.45;;;14.02;;
21448;SDS011;10885;52.830;13.788;2024-03-06T22:13:37;33.92;;;12.95;;
21448;SDS011;10885;52.830;13.788;2024-03-06T22:18:40;34.17;;;14.80;;
21448;SDS011;10885;52.830;13.788;2024-03-06T22:23:44;34.33;;;14.32;;
21448;SDS011;10885;52.830;13.788;2024-03-06T22:28:46;39.00;;;14.82;;
